Time;durP1;ratioP1;P1;durP2;ratioP2;P2;SDS_P1;SDS_P2;PMS_P1;PMS_P2;Temp;Humidity;BMP_temperature;BMP_pressure;BME280_temperature;BME280_humidity;BME280_pressure;Samples;Min_cycle;Max_cycle;Signal;HPM_P1;HPM_P2
2022/08/31 00:04:41;;;;;;;12.50;8.93;;;17.00;99.90;;;;;;5038711;28;20209;-80
2022/08/31 00:07:08;;;;;;;9.97;8.43;;;17.00;99.90;;;;;;5038548;28;20579;-81
2022/08/31 00:09:34;;;;;;;10.87;8.90;;;17.00;99.90;;;;;;5037304;28;20683;-81
2022/08/31 00:11:59;;;;;;;12.47;9.47;;;17.00;99.90;;;;;;5037660;28;20174;-80
2022/08/31 00:14:25;;;;;;;13.80;9.13;;;17.00;99.90;;;;;;5037072;28;20202;-81
2022/08/31 00:16:51;;;;;;;11.77;8.17;;;17.00;99.90;;;;;;5035857;28;20171;-82
2022/08/31 00:19:17;;;;;;;11.80;9.27;;;17.00;99.90;;;;;;5036789;28;20171;-80
2022/08/31 00:21:43;;;;;;;11.80;9.40;;;17.00;99.90;;;;;;5035650;28;20174;-82
2022/08/31 00:24:09;;;;;;;11.83;9.00;;;17.00;99.90;;;;;;5036979;28;20183;-82
2022/08/31 00:26:35;;;;;;;10.67;9.50;;;17.00;99.90;;;;;;5037138;28;20174;-80
2022/08/31 00:29:02;;;;;;;13.17;10.10;;;17.00;99.90;;;;;;5035512;28;20218;-82
2022/08/31 00:31:27;;;;;;;10.33;9.23;;;17.00;99.90;;;;;;5035553;28;20174;-79
2022/08/31 00:33:54;;;;;;;10.23;9.10;;;17.00;99.90;;;;;;5036906;28;20202;-80
2022/08/31 00:36:22;;;;;;;11.97;9.33;;;17.00;99.90;;;;;;5035426;28;20640;-82
2022/08/31 00:38:49;;;;;;;12.83;10.20;;;17.00;99.90;;;;;;5036673;28;20655;-80
2022/08/31 00:41:18;;;;;;;14.50;10.23;;;17.00;99.90;;;;;;5035374;28;20191;-80
2022/08/31 00:43:50;;;;;;;11.37;9.53;;;17.00;99.90;;;;;;5036668;28;20170;-82
2022/08/31 00:46:28;;;;;;;9.97;8.83;;;17.10;99.90;;;;;;5036802;28;20693;-80
2022/08/31 00:49:06;;;;;;;10.83;9.67;;;17.10;99.90;;;;;;5036550;28;20162;-81
2022/08/31 00:51:38;;;;;;;11.30;9.27;;;17.10;99.90;;;;;;5036719;28;20170;-80
2022/08/31 00:54:06;;;;;;;12.20;9.23;;;17.10;99.90;;;;;;5036655;28;20190;-80
2022/08/31 00:56:33;;;;;;;10.80;8.90;;;17.10;99.90;;;;;;5036381;28;20608;-80
2022/08/31 00:58:59;;;;;;;11.80;8.87;;;17.20;99.90;;;;;;5036069;28;20177;-80
2022/08/31 01:01:26;;;;;;;10.63;8.67;;;17.20;99.90;;;;;;5036278;28;20190;-80
2022/08/31 01:03:53;;;;;;;10.30;8.87;;;17.20;99.90;;;;;;5036241;28;20182;-80
2022/08/31 01:06:20;;;;;;;10.00;8.43;;;17.20;99.90;;;;;;5036579;28;20644;-81
2022/08/31 01:08:46;;;;;;;10.67;8.27;;;17.20;99.90;;;;;;5036193;28;20178;-80
2022/08/31 01:11:13;;;;;;;10.90;8.37;;;17.10;99.90;;;;;;5036255;28;20690;-80
2022/08/31 01:13:40;;;;;;;8.23;7.33;;;17.20;99.90;;;;;;5034959;28;20181;-80
2022/08/31 01:16:10;;;;;;;9.20;8.30;;;17.10;99.90;;;;;;5036781;28;20178;-81
2022/08/31 01:18:37;;;;;;;12.13;8.27;;;17.10;99.90;;;;;;5034768;28;20528;-81
2022/08/31 01:21:22;;;;;;;12.13;8.47;;;17.10;99.90;;;;;;5034574;28;20202;-82
2022/08/31 01:23:48;;;;;;;9.33;8.33;;;17.10;99.90;;;;;;5036247;28;20525;-82
2022/08/31 01:26:23;;;;;;;13.20;8.33;;;17.10;99.90;;;;;;5034884;28;20209;-80
2022/08/31 01:28:51;;;;;;;12.20;8.30;;;17.10;99.90;;;;;;5034712;28;20595;-80
2022/08/31 01:31:42;;;;;;;12.87;8.20;;;17.00;99.90;;;;;;5035858;28;20286;-80
2022/08/31 01:34:08;;;;;;;12.57;8.63;;;17.00;99.90;;;;;;5036135;28;20196;-80
2022/08/31 01:36:36;;;;;;;9.73;7.90;;;16.90;99.90;;;;;;5035981;28;20180;-82
2022/08/31 01:39:04;;;;;;;14.47;8.53;;;17.00;99.90;;;;;;5035732;28;20172;-82
2022/08/31 01:41:30;;;;;;;10.10;8.77;;;16.90;99.90;;;;;;5036177;28;20180;-81
2022/08/31 01:43:56;;;;;;;11.33;9.13;;;16.90;99.90;;;;;;5036171;28;20172;-81
2022/08/31 01:46:23;;;;;;;12.10;9.57;;;16.90;99.90;;;;;;5036210;28;20179;-81
2022/08/31 01:48:49;;;;;;;12.73;8.80;;;16.80;99.90;;;;;;5036287;28;20241;-81
2022/08/31 01:51:18;;;;;;;14.40;9.20;;;16.80;99.90;;;;;;5036067;28;20224;-81
2022/08/31 01:53:46;;;;;;;10.63;9.53;;;16.80;99.90;;;;;;5035994;28;20204;-83
2022/08/31 01:56:17;;;;;;;12.60;9.90;;;16.80;99.90;;;;;;5034751;28;20186;-80
2022/08/31 01:58:42;;;;;;;14.73;9.33;;;16.80;99.90;;;;;;5035926;28;20565;-81
2022/08/31 02:01:09;;;;;;;12.73;10.00;;;;;;;;;;5034892;28;20191;-81
2022/08/31 02:03:35;;;;;;;12.30;9.80;;;16.80;99.90;;;;;;5036097;28;20191;-83
2022/08/31 02:06:12;;;;;;;12.57;9.53;;;16.80;99.90;;;;;;5034683;28;20176;-80
2022/08/31 02:08:38;;;;;;;13.43;10.27;;;16.70;99.90;;;;;;5035733;28;20538;-80
2022/08/31 02:11:05;;;;;;;13.37;10.73;;;16.70;99.90;;;;;;5035603;28;20188;-81
2022/08/31 02:13:32;;;;;;;13.50;10.93;;;16.70;99.90;;;;;;5034926;28;20177;-81
2022/08/31 02:15:58;;;;;;;12.63;10.90;;;16.60;99.90;;;;;;5034999;28;20167;-80
2022/08/31 02:18:24;;;;;;;11.57;10.33;;;16.60;99.90;;;;;;5034659;28;20225;-82
2022/08/31 02:20:50;;;;;;;13.53;10.77;;;16.60;99.90;;;;;;5034796;28;20193;-81
2022/08/31 02:23:16;;;;;;;12.80;10.00;;;16.60;99.90;;;;;;5034810;28;20178;-80
2022/08/31 02:25:42;;;;;;;11.20;9.67;;;;;;;;;;5034803;28;20175;-82
2022/08/31 02:28:11;;;;;;;13.73;11.23;;;16.50;99.90;;;;;;5033325;28;20178;-81
2022/08/31 02:30:37;;;;;;;16.47;11.57;;;16.50;99.90;;;;;;5034512;28;20613;-82
2022/08/31 02:33:03;;;;;;;14.00;10.97;;;16.60;99.90;;;;;;5033537;28;20689;-82
2022/08/31 02:35:29;;;;;;;12.57;10.93;;;;;;;;;;5034842;28;20582;-80
2022/08/31 02:37:55;;;;;;;12.07;10.70;;;16.50;99.90;;;;;;5034646;28;20171;-83
2022/08/31 02:40:21;;;;;;;13.90;10.83;;;16.50;99.90;;;;;;5034466;28;20192;-80
2022/08/31 02:42:47;;;;;;;14.17;11.93;;;;;;;;;;5034783;28;20234;-80
2022/08/31 02:45:13;;;;;;;12.10;10.57;;;16.40;99.90;;;;;;5034669;28;20267;-81
2022/08/31 02:47:38;;;;;;;19.07;11.73;;;16.40;99.90;;;;;;5032998;28;20284;-82
2022/08/31 02:50:05;;;;;;;12.00;10.73;;;16.40;99.90;;;;;;5032980;28;20221;-81
2022/08/31 02:52:31;;;;;;;14.73;10.83;;;16.40;99.90;;;;;;5034779;28;20193;-80
2022/08/31 02:54:57;;;;;;;18.90;11.73;;;16.40;99.90;;;;;;5033094;28;20599;-80
2022/08/31 02:57:23;;;;;;;12.80;10.37;;;16.40;99.90;;;;;;5035019;28;20648;-81
2022/08/31 02:59:49;;;;;;;21.53;12.30;;;16.40;99.90;;;;;;5035513;28;20184;-83
2022/08/31 03:02:14;;;;;;;15.87;11.60;;;16.40;99.90;;;;;;5035869;28;20633;-80
2022/08/31 03:04:41;;;;;;;15.50;11.23;;;16.40;99.90;;;;;;5034179;28;20193;-83
2022/08/31 03:07:06;;;;;;;13.53;11.70;;;16.30;99.90;;;;;;5035290;28;20257;-83
2022/08/31 03:09:32;;;;;;;17.20;12.33;;;16.30;99.90;;;;;;5034262;28;20194;-81
2022/08/31 03:11:59;;;;;;;16.17;10.67;;;16.30;99.90;;;;;;5035534;28;20174;-80
2022/08/31 03:14:25;;;;;;;15.43;11.20;;;16.40;99.90;;;;;;5034188;28;20688;-82
2022/08/31 03:16:52;;;;;;;14.77;10.87;;;16.40;99.90;;;;;;5035697;28;20193;-83
2022/08/31 03:19:18;;;;;;;15.07;11.40;;;16.30;99.90;;;;;;5033847;28;20182;-82
2022/08/31 03:21:45;;;;;;;13.13;11.07;;;16.30;99.90;;;;;;5039135;28;20174;-82
2022/08/31 03:24:16;;;;;;;14.00;11.10;;;16.30;99.90;;;;;;5039903;28;20173;-82
2022/08/31 03:26:43;;;;;;;16.70;11.60;;;16.30;99.90;;;;;;5038124;28;20180;-82
2022/08/31 03:29:09;;;;;;;16.47;10.93;;;16.30;99.90;;;;;;5039018;28;20200;-82
2022/08/31 03:31:35;;;;;;;22.50;12.33;;;16.30;99.90;;;;;;5038049;28;20671;-83
2022/08/31 03:34:00;;;;;;;12.60;10.73;;;16.30;99.90;;;;;;5039294;28;20197;-84
2022/08/31 03:36:26;;;;;;;13.57;11.20;;;16.20;99.90;;;;;;5038001;28;20176;-83
2022/08/31 03:38:52;;;;;;;12.43;10.87;;;16.30;99.90;;;;;;5039307;28;20205;-82
2022/08/31 03:41:22;;;;;;;15.07;10.90;;;16.20;99.90;;;;;;5038900;28;20672;-81
2022/08/31 03:43:48;;;;;;;14.80;9.93;;;16.30;99.90;;;;;;5038096;28;20176;-81
2022/08/31 03:46:14;;;;;;;12.97;10.03;;;16.20;99.90;;;;;;5038026;28;20190;-83
2022/08/31 03:48:40;;;;;;;12.63;10.57;;;16.20;99.90;;;;;;5039342;28;20182;-82
2022/08/31 03:51:05;;;;;;;13.00;11.40;;;16.20;99.90;;;;;;5039753;28;20195;-80
2022/08/31 03:53:31;;;;;;;14.33;11.27;;;16.20;99.90;;;;;;5039788;28;20179;-81
2022/08/31 03:56:01;;;;;;;13.67;10.47;;;16.20;99.90;;;;;;5040571;28;20171;-82
2022/08/31 03:58:31;;;;;;;12.70;10.60;;;16.20;99.90;;;;;;5039645;28;20172;-81
2022/08/31 04:00:56;;;;;;;11.47;10.27;;;16.20;99.90;;;;;;5040021;28;20270;-83
2022/08/31 04:03:23;;;;;;;11.63;10.23;;;16.20;99.90;;;;;;5038950;28;20209;-81
2022/08/31 04:05:49;;;;;;;11.33;10.00;;;16.20;99.90;;;;;;5040426;28;20159;-82
2022/08/31 04:08:16;;;;;;;14.50;10.40;;;16.20;99.90;;;;;;5040317;28;20179;-82
2022/08/31 04:10:44;;;;;;;13.97;11.07;;;16.20;99.90;;;;;;5039153;28;20257;-83
2022/08/31 04:13:10;;;;;;;15.83;11.27;;;16.20;99.90;;;;;;5039822;28;20174;-81
2022/08/31 04:15:36;;;;;;;11.27;10.03;;;16.30;99.90;;;;;;5038962;28;20201;-82
2022/08/31 04:18:02;;;;;;;14.60;10.53;;;16.30;99.90;;;;;;5039006;28;20175;-82
2022/08/31 04:20:28;;;;;;;12.77;10.80;;;16.30;99.90;;;;;;5039183;28;20202;-82
2022/08/31 04:22:54;;;;;;;12.07;10.20;;;16.30;99.90;;;;;;5037884;28;20175;-81
2022/08/31 04:25:19;;;;;;;13.20;10.53;;;16.30;99.90;;;;;;5037510;28;20184;-82
2022/08/31 04:27:49;;;;;;;12.13;10.40;;;16.30;99.90;;;;;;5037756;28;20177;-83
2022/08/31 04:30:16;;;;;;;12.60;10.87;;;16.30;99.90;;;;;;5038445;28;20190;-82
2022/08/31 04:32:42;;;;;;;13.03;10.73;;;16.30;99.90;;;;;;5036807;28;20176;-82
2022/08/31 04:35:11;;;;;;;16.00;10.30;;;16.30;99.90;;;;;;5038691;28;20203;-81
2022/08/31 04:37:37;;;;;;;12.43;10.50;;;16.30;99.90;;;;;;5038649;28;20243;-81
2022/08/31 04:40:03;;;;;;;14.67;10.20;;;16.30;99.90;;;;;;5037686;28;20611;-84
2022/08/31 04:42:29;;;;;;;12.83;10.87;;;16.30;99.90;;;;;;5038599;28;20172;-81
2022/08/31 04:44:55;;;;;;;13.63;10.33;;;16.30;99.90;;;;;;5038476;28;20228;-81
2022/08/31 04:47:20;;;;;;;14.87;10.17;;;16.30;99.90;;;;;;5037364;28;20185;-81
2022/08/31 04:49:47;;;;;;;12.97;10.23;;;16.30;99.90;;;;;;5037033;28;20198;-84
2022/08/31 04:52:13;;;;;;;14.20;10.60;;;16.30;99.90;;;;;;5039568;28;20641;-82
2022/08/31 04:54:39;;;;;;;16.37;10.50;;;;;;;;;;5038443;28;20199;-82
2022/08/31 04:57:04;;;;;;;17.40;10.73;;;16.30;99.90;;;;;;5038413;28;20175;-82
2022/08/31 04:59:30;;;;;;;14.93;11.27;;;16.20;99.90;;;;;;5038317;28;20253;-81
2022/08/31 05:01:57;;;;;;;12.10;10.63;;;;;;;;;;5038757;28;20217;-82
2022/08/31 05:04:23;;;;;;;15.47;10.37;;;16.30;99.90;;;;;;5038498;28;20280;-84
2022/08/31 05:06:50;;;;;;;12.47;11.17;;;16.30;99.90;;;;;;5037414;28;20209;-83
2022/08/31 05:09:19;;;;;;;11.90;10.13;;;16.30;99.90;;;;;;5038029;28;20179;-84
2022/08/31 05:11:46;;;;;;;14.37;11.03;;;16.30;99.90;;;;;;5037011;28;20186;-81
2022/08/31 05:14:12;;;;;;;18.67;10.83;;;16.30;99.90;;;;;;5038638;28;20206;-84
2022/08/31 05:16:40;;;;;;;14.73;10.60;;;16.30;99.90;;;;;;5038463;28;20638;-81
2022/08/31 05:19:05;;;;;;;12.90;10.87;;;16.40;99.90;;;;;;5037389;28;20176;-83
2022/08/31 07:28:34;;;;;;;18.30;14.73;;;15.90;99.90;;;;;;5136136;27;20632;-82
2022/08/31 07:31:02;;;;;;;19.80;14.97;;;15.90;99.90;;;;;;5137012;28;20273;-81
2022/08/31 07:33:37;;;;;;;19.60;16.40;;;15.90;99.90;;;;;;5134522;27;20195;-80
2022/08/31 07:36:09;;;;;;;23.23;17.00;;;15.90;99.90;;;;;;5134062;28;20159;-80
2022/08/31 07:44:04;;;;;;;21.73;15.70;;;15.90;99.90;;;;;;5133890;28;20214;-80
2022/08/31 07:46:30;;;;;;;19.67;15.33;;;15.80;99.90;;;;;;5133921;27;20668;-80
2022/08/31 07:48:58;;;;;;;18.93;15.43;;;15.90;99.90;;;;;;5132699;28;20258;-82
2022/08/31 08:37:07;;;;;;;21.10;17.07;;;15.70;99.90;;;;;;5136935;27;20729;-81
2022/08/31 08:39:33;;;;;;;23.10;17.63;;;15.80;99.90;;;;;;5117221;28;20281;-81
2022/08/31 08:41:58;;;;;;;25.57;18.37;;;15.90;99.90;;;;;;5132181;28;20258;-81
2022/08/31 08:44:28;;;;;;;21.50;17.87;;;15.80;99.90;;;;;;5132298;28;20644;-82
2022/08/31 08:46:59;;;;;;;24.57;18.60;;;15.80;99.90;;;;;;5132049;28;20232;-81
2022/08/31 09:04:06;;;;;;;20.23;16.77;;;15.80;99.90;;;;;;5135549;27;20597;-81
2022/08/31 09:06:39;;;;;;;21.50;17.83;;;15.80;99.90;;;;;;5114840;28;20175;-81
2022/08/31 09:09:16;;;;;;;20.90;18.13;;;15.90;99.90;;;;;;5132838;28;20499;-81
2022/08/31 09:12:03;;;;;;;21.10;17.73;;;15.90;99.90;;;;;;5132181;28;20589;-81
2022/08/31 09:14:47;;;;;;;20.87;17.67;;;15.90;99.90;;;;;;5121632;28;20215;-83
2022/08/31 09:17:33;;;;;;;18.67;16.67;;;16.00;99.90;;;;;;5131959;28;20197;-82
2022/08/31 09:20:00;;;;;;;18.27;16.37;;;16.00;99.90;;;;;;5133811;27;20252;-80
2022/08/31 09:22:45;;;;;;;18.60;16.33;;;16.10;99.90;;;;;;5133016;27;20244;-80
2022/08/31 09:25:43;;;;;;;17.67;15.57;;;16.10;99.90;;;;;;5132754;27;20158;-80
2022/08/31 09:28:14;;;;;;;31.57;22.60;;;16.10;99.90;;;;;;5130587;28;20183;-81
2022/08/31 09:30:42;;;;;;;265.43;115.17;;;16.20;99.90;;;;;;5132623;27;20191;-80
2022/08/31 09:33:49;;;;;;;102.17;52.33;;;16.10;99.90;;;;;;5132241;27;20163;-81
2022/08/31 09:36:18;;;;;;;128.10;67.00;;;16.10;99.90;;;;;;5089634;28;20172;-80
2022/08/31 09:38:45;;;;;;;84.27;54.17;;;16.10;99.90;;;;;;5121694;28;20178;-81
2022/08/31 09:41:34;;;;;;;23.90;17.50;;;16.00;99.90;;;;;;5130819;28;20244;-80
2022/08/31 09:44:19;;;;;;;19.37;15.37;;;16.00;99.90;;;;;;5130813;28;20174;-80
2022/08/31 09:46:55;;;;;;;16.63;14.77;;;16.00;99.90;;;;;;5130631;28;20183;-80
2022/08/31 10:04:25;;;;;;;16.47;14.47;;;16.00;99.90;;;;;;5075476;28;20605;-82
2022/08/31 10:07:08;;;;;;;16.20;14.50;;;16.00;99.90;;;;;;5064466;28;20196;-90
2022/08/31 10:09:48;;;;;;;17.27;15.23;;;16.00;99.90;;;;;;5068352;28;20205;-84
2022/08/31 10:12:38;;;;;;;16.00;14.30;;;16.00;99.90;;;;;;5071429;28;20273;-88
2022/08/31 10:15:13;;;;;;;15.97;13.93;;;16.00;99.90;;;;;;5072006;28;20188;-88
2022/08/31 10:17:52;;;;;;;17.03;15.23;;;15.90;99.90;;;;;;5071858;28;20699;-86
2022/08/31 10:20:22;;;;;;;18.07;14.77;;;15.80;99.90;;;;;;5071588;28;20283;-87
2022/08/31 10:22:56;;;;;;;22.03;15.60;;;15.90;99.90;;;;;;5071760;28;20200;-84
2022/08/31 10:25:51;;;;;;;16.43;14.73;;;15.90;99.90;;;;;;5071279;28;20161;-85
2022/08/31 10:28:35;;;;;;;19.80;16.33;;;16.00;99.90;;;;;;5066322;28;20230;-84
2022/08/31 10:46:02;;;;;;;19.93;16.37;;;16.00;99.90;;;;;;5135167;27;20277;-87
2022/08/31 10:48:28;;;;;;;18.43;16.23;;;16.00;99.90;;;;;;5117594;28;20179;-88
2022/08/31 10:51:04;;;;;;;18.93;16.90;;;16.10;99.90;;;;;;5128016;28;20763;-87
2022/08/31 10:53:51;;;;;;;19.47;17.47;;;16.20;99.90;;;;;;5119654;28;20175;-87
2022/08/31 10:56:43;;;;;;;18.67;16.77;;;16.20;99.90;;;;;;5112972;28;20211;-86
2022/08/31 10:59:46;;;;;;;19.90;17.73;;;16.40;99.90;;;;;;5112146;28;20176;-88
2022/08/31 11:02:26;;;;;;;19.33;17.37;;;16.40;99.90;;;;;;5112132;28;20187;-86
2022/08/31 11:05:32;;;;;;;20.80;18.23;;;16.40;99.90;;;;;;5117529;28;20281;-86
2022/08/31 11:08:15;;;;;;;19.47;16.00;;;16.50;99.90;;;;;;5113714;28;20179;-87
2022/08/31 11:10:51;;;;;;;16.83;15.13;;;16.60;99.90;;;;;;5135002;28;20198;-88
2022/08/31 11:13:59;;;;;;;16.07;14.43;;;16.70;99.90;;;;;;5131428;28;20251;-86
2022/08/31 11:16:46;;;;;;;16.17;14.43;;;16.80;99.90;;;;;;5113496;28;20187;-87
2022/08/31 11:19:43;;;;;;;17.10;15.40;;;16.90;99.90;;;;;;5117363;28;20176;-86
2022/08/31 11:22:28;;;;;;;16.93;15.33;;;16.90;99.90;;;;;;5119219;28;20207;-87
2022/08/31 11:25:09;;;;;;;15.97;14.37;;;17.00;99.90;;;;;;5118699;28;20188;-87
2022/08/31 11:27:43;;;;;;;16.10;14.40;;;16.90;99.90;;;;;;5119235;28;20163;-87
2022/08/31 11:30:25;;;;;;;17.50;15.70;;;16.90;99.90;;;;;;5122973;28;20206;-87
2022/08/31 11:32:58;;;;;;;19.40;16.00;;;16.90;99.90;;;;;;5117383;28;20179;-86
2022/08/31 11:35:46;;;;;;;17.73;15.83;;;16.90;99.90;;;;;;5113250;28;20176;-87
2022/08/31 11:38:51;;;;;;;17.87;16.00;;;16.90;99.90;;;;;;5097330;28;20187;-84
2022/08/31 11:41:33;;;;;;;18.77;16.77;;;16.90;99.90;;;;;;5091528;28;20196;-84
2022/08/31 11:44:02;;;;;;;19.87;16.07;;;16.90;99.90;;;;;;5110700;28;20277;-85
2022/08/31 11:46:28;;;;;;;19.23;17.23;;;17.00;99.90;;;;;;5112997;28;20175;-86
2022/08/31 11:48:53;;;;;;;19.77;16.83;;;17.00;99.90;;;;;;5111084;28;20205;-85
2022/08/31 11:51:40;;;;;;;20.27;18.07;;;16.90;99.90;;;;;;5110488;28;20200;-86
2022/08/31 11:54:25;;;;;;;20.27;17.87;;;17.00;99.90;;;;;;5110591;28;20517;-86
2022/08/31 11:56:55;;;;;;;20.27;17.73;;;17.00;99.90;;;;;;5091907;28;20291;-86
2022/08/31 11:59:32;;;;;;;20.20;18.10;;;17.30;99.90;;;;;;5098067;28;20174;-86
2022/08/31 12:02:19;;;;;;;21.07;17.20;;;17.30;99.90;;;;;;5097795;28;20168;-88
2022/08/31 12:04:47;;;;;;;26.33;19.43;;;17.40;99.90;;;;;;5093739;28;20236;-87
2022/08/31 12:07:26;;;;;;;18.90;16.77;;;17.60;99.90;;;;;;5099457;28;20193;-85
2022/08/31 12:10:14;;;;;;;18.27;16.37;;;17.60;99.90;;;;;;5092577;28;20246;-84
2022/08/31 12:13:08;;;;;;;18.20;16.20;;;17.60;99.90;;;;;;5081799;28;20700;-83
2022/08/31 12:15:39;;;;;;;19.33;16.23;;;17.60;99.90;;;;;;5077611;28;20180;-84
2022/08/31 12:18:08;;;;;;;22.77;16.20;;;17.70;99.90;;;;;;5077346;28;20182;-83
2022/08/31 12:23:56;;;;;;;18.57;15.40;;;17.70;99.90;;;;;;5077850;28;20183;-83
2022/08/31 12:27:03;;;;;;;17.80;15.97;;;17.80;99.90;;;;;;5093382;28;20293;-83
2022/08/31 12:29:33;;;;;;;17.73;15.00;;;17.80;99.90;;;;;;5095066;28;20209;-84
2022/08/31 12:32:02;;;;;;;16.80;15.00;;;17.80;99.90;;;;;;5095763;28;20321;-84
2022/08/31 12:34:29;;;;;;;17.83;15.90;;;17.70;99.90;;;;;;5094560;28;20189;-84
2022/08/31 12:36:54;;;;;;;18.67;16.60;;;17.80;99.90;;;;;;5098179;28;20172;-83
2022/08/31 12:39:21;;;;;;;18.43;16.07;;;18.20;99.90;;;;;;5094777;28;20197;-82
2022/08/31 12:41:57;;;;;;;15.80;14.20;;;18.20;99.90;;;;;;5095775;28;20197;-83
2022/08/31 12:44:30;;;;;;;15.67;14.13;;;18.40;99.90;;;;;;5096595;28;20303;-85
2022/08/31 12:47:15;;;;;;;17.07;14.00;;;18.50;99.90;;;;;;5096577;28;20173;-85
2022/08/31 12:49:46;;;;;;;17.53;14.50;;;18.70;99.90;;;;;;5096554;28;20202;-84
2022/08/31 12:52:42;;;;;;;16.07;14.37;;;18.70;99.90;;;;;;5097296;28;20173;-83
2022/08/31 12:55:37;;;;;;;15.73;14.03;;;18.70;99.90;;;;;;5096445;28;20199;-85
2022/08/31 12:58:18;;;;;;;14.70;13.20;;;18.70;99.90;;;;;;5096658;28;20246;-86
2022/08/31 13:00:44;;;;;;;16.83;15.13;;;18.80;99.90;;;;;;5095354;28;20671;-85
2022/08/31 13:03:18;;;;;;;16.93;15.13;;;18.70;99.90;;;;;;5095696;28;20596;-85
2022/08/31 13:06:06;;;;;;;17.97;14.70;;;18.60;99.90;;;;;;5096374;28;20189;-85
2022/08/31 13:08:38;;;;;;;17.77;12.30;;;18.60;99.90;;;;;;5096952;28;20201;-86
2022/08/31 13:11:23;;;;;;;18.50;12.87;;;18.40;99.90;;;;;;5076526;28;20201;-85
2022/08/31 13:13:51;;;;;;;13.90;12.53;;;18.40;99.90;;;;;;5079037;28;20646;-85
2022/08/31 13:16:17;;;;;;;17.03;13.23;;;18.50;99.90;;;;;;5097165;28;20567;-86
2022/08/31 13:18:45;;;;;;;15.63;13.93;;;;;;;;;;5095990;28;20189;-86
2022/08/31 13:21:18;;;;;;;15.67;12.83;;;18.30;99.90;;;;;;5095598;28;20696;-86
2022/08/31 13:23:47;;;;;;;14.73;13.23;;;18.20;99.90;;;;;;5094868;28;20579;-85
2022/08/31 13:26:24;;;;;;;16.50;13.10;;;18.00;99.90;;;;;;5095638;28;20574;-85
2022/08/31 13:28:52;;;;;;;15.10;12.47;;;17.90;99.90;;;;;;5096874;28;20673;-85
2022/08/31 13:31:31;;;;;;;16.77;13.80;;;17.90;99.90;;;;;;5094286;28;20200;-86
2022/08/31 13:34:00;;;;;;;15.77;13.50;;;17.80;99.90;;;;;;5095529;28;20745;-87
2022/08/31 13:36:30;;;;;;;16.40;13.70;;;17.60;99.90;;;;;;5090322;28;20195;-89
2022/08/31 13:39:01;;;;;;;15.20;13.60;;;17.50;99.90;;;;;;5087391;28;20248;-88
2022/08/31 13:41:39;;;;;;;16.00;14.30;;;17.40;99.90;;;;;;5094191;28;20202;-88
2022/08/31 13:44:08;;;;;;;16.03;12.67;;;17.40;99.90;;;;;;5095966;28;20210;-88
2022/08/31 13:46:48;;;;;;;14.93;12.83;;;17.40;99.90;;;;;;5095332;28;20580;-87
2022/08/31 13:49:29;;;;;;;18.53;15.13;;;17.40;99.90;;;;;;5096177;28;20155;-86
2022/08/31 13:51:55;;;;;;;17.03;14.70;;;17.40;99.90;;;;;;5094775;28;20196;-87
2022/08/31 13:54:30;;;;;;;16.40;13.97;;;17.40;99.90;;;;;;5096333;28;20183;-84
2022/08/31 13:57:08;;;;;;;14.27;12.80;;;17.40;99.90;;;;;;5097842;28;20158;-85
2022/08/31 13:59:38;;;;;;;21.20;13.40;;;17.30;99.90;;;;;;5094684;28;20225;-86
2022/08/31 14:02:18;;;;;;;14.37;12.23;;;17.30;99.90;;;;;;5095461;28;20179;-86
2022/08/31 14:04:59;;;;;;;17.10;12.87;;;17.30;99.90;;;;;;5094461;28;20629;-86
2022/08/31 14:07:38;;;;;;;14.73;12.10;;;17.30;99.90;;;;;;5095300;28;20698;-86
2022/08/31 14:10:18;;;;;;;13.23;11.50;;;17.30;99.90;;;;;;5096614;28;20586;-90
2022/08/31 14:12:52;;;;;;;16.10;12.63;;;17.30;99.90;;;;;;5094614;28;20172;-88
2022/08/31 14:15:35;;;;;;;17.87;12.13;;;17.30;99.90;;;;;;5093950;28;20549;-85
2022/08/31 14:18:25;;;;;;;13.50;11.83;;;17.40;99.90;;;;;;5096049;28;20169;-86
2022/08/31 14:21:06;;;;;;;16.93;11.87;;;17.40;99.90;;;;;;5096171;28;20599;-87
2022/08/31 14:23:35;;;;;;;14.67;11.87;;;17.40;99.90;;;;;;5097670;28;20179;-85
2022/08/31 14:26:05;;;;;;;12.57;11.23;;;17.60;99.90;;;;;;5096833;28;20209;-87
2022/08/31 14:28:40;;;;;;;13.37;11.77;;;17.60;99.90;;;;;;5096064;28;20181;-87
2022/08/31 14:31:11;;;;;;;13.23;11.47;;;17.60;99.90;;;;;;5097220;28;20237;-87
2022/08/31 14:33:42;;;;;;;13.07;11.67;;;17.60;99.90;;;;;;5090600;28;20187;-86
2022/08/31 14:36:16;;;;;;;13.30;10.93;;;17.60;99.90;;;;;;5074309;28;20184;-87
2022/08/31 14:38:43;;;;;;;13.57;11.00;;;17.50;99.90;;;;;;5072989;28;20179;-85
2022/08/31 14:41:12;;;;;;;16.83;11.90;;;17.40;99.90;;;;;;5073710;28;20675;-84
2022/08/31 14:43:41;;;;;;;13.43;11.13;;;17.40;99.90;;;;;;5074736;28;20180;-84
2022/08/31 14:46:09;;;;;;;13.33;11.93;;;17.40;99.90;;;;;;5074606;28;20239;-87
2022/08/31 14:48:34;;;;;;;11.43;10.07;;;17.40;99.90;;;;;;5082816;28;20182;-88
2022/08/31 14:51:05;;;;;;;11.80;9.73;;;17.40;99.90;;;;;;5095548;28;20277;-87
2022/08/31 14:53:35;;;;;;;13.53;10.33;;;17.40;99.90;;;;;;5094285;28;20179;-87
2022/08/31 14:56:06;;;;;;;14.63;10.53;;;17.40;99.90;;;;;;5095184;28;20165;-85
2022/08/31 14:58:33;;;;;;;13.03;9.83;;;17.50;99.90;;;;;;5094792;28;20189;-86
2022/08/31 15:01:00;;;;;;;11.17;10.07;;;17.30;99.90;;;;;;5094885;28;20195;-87
2022/08/31 15:03:26;;;;;;;11.93;10.43;;;17.30;99.90;;;;;;5095211;28;20184;-86
2022/08/31 15:05:52;;;;;;;14.70;10.83;;;17.30;99.90;;;;;;5095462;28;20207;-83
2022/08/31 15:08:18;;;;;;;12.63;10.17;;;;;;;;;;5095025;28;20545;-86
2022/08/31 15:10:45;;;;;;;10.73;9.63;;;17.10;99.90;;;;;;5093992;28;20686;-86
2022/08/31 15:13:10;;;;;;;11.43;10.23;;;17.00;99.90;;;;;;5095034;28;20271;-84
2022/08/31 15:15:36;;;;;;;11.27;9.70;;;16.90;99.90;;;;;;5096360;28;20202;-86
2022/08/31 15:18:03;;;;;;;10.57;9.47;;;;;;;;;;5096439;28;20179;-84
2022/08/31 15:20:36;;;;;;;10.93;9.70;;;16.70;99.90;;;;;;5096875;28;20208;-84
2022/08/31 15:23:02;;;;;;;10.90;9.77;;;16.70;99.90;;;;;;5095860;28;20184;-85
2022/08/31 15:25:28;;;;;;;11.70;10.07;;;16.70;99.90;;;;;;5095775;28;20560;-86
2022/08/31 15:27:54;;;;;;;13.10;10.03;;;16.60;99.90;;;;;;5096886;28;20632;-83
2022/08/31 15:30:21;;;;;;;12.60;11.20;;;;;;;;;;5096680;28;20224;-85
2022/08/31 15:32:47;;;;;;;12.13;10.20;;;;;;;;;;5100755;28;20166;-85
2022/08/31 15:35:17;;;;;;;14.67;10.30;;;16.60;99.90;;;;;;5101287;28;20177;-85
2022/08/31 15:37:55;;;;;;;13.00;10.80;;;16.60;99.90;;;;;;5100525;28;20743;-85
2022/08/31 15:40:22;;;;;;;12.37;10.00;;;16.60;99.90;;;;;;5099405;28;20199;-85
2022/08/31 15:42:49;;;;;;;12.23;10.37;;;16.60;99.90;;;;;;5099533;28;20263;-85
2022/08/31 15:45:15;;;;;;;11.43;9.73;;;16.60;99.90;;;;;;5100653;28;20206;-86
2022/08/31 15:50:27;;;;;;;10.83;8.57;;;16.50;99.90;;;;;;5099366;28;20223;-85
2022/08/31 15:52:57;;;;;;;10.37;8.67;;;16.50;99.90;;;;;;5098720;28;20173;-84
2022/08/31 15:55:25;;;;;;;8.40;7.53;;;16.50;99.90;;;;;;5101930;28;20589;-85
2022/08/31 15:57:57;;;;;;;10.97;7.40;;;16.40;99.90;;;;;;5100969;28;20536;-84
2022/08/31 16:00:24;;;;;;;8.63;7.43;;;16.40;99.90;;;;;;5100709;28;20199;-85
2022/08/31 16:02:53;;;;;;;10.73;7.97;;;16.40;99.90;;;;;;5100383;28;20175;-84
2022/08/31 16:05:20;;;;;;;7.90;6.60;;;16.30;99.90;;;;;;5099668;28;20615;-85
2022/08/31 16:07:46;;;;;;;9.53;8.53;;;16.40;99.90;;;;;;5098722;28;20173;-84
2022/08/31 16:10:14;;;;;;;8.77;7.60;;;;;;;;;;5097910;28;20692;-85
2022/08/31 16:12:41;;;;;;;9.43;7.43;;;16.30;99.90;;;;;;5099499;28;20583;-84
2022/08/31 16:15:13;;;;;;;7.67;6.87;;;16.30;99.90;;;;;;5098542;28;20176;-84
2022/08/31 16:17:40;;;;;;;9.43;8.30;;;16.20;99.90;;;;;;5087062;28;20180;-86
2022/08/31 16:20:11;;;;;;;9.17;7.87;;;16.30;99.90;;;;;;5078652;28;20637;-89
2022/08/31 16:22:38;;;;;;;9.00;7.63;;;16.20;99.90;;;;;;5078984;28;20646;-90
2022/08/31 16:25:05;;;;;;;10.80;8.13;;;16.20;99.90;;;;;;5079297;28;20223;-89
2022/08/31 16:27:32;;;;;;;10.00;7.87;;;16.20;99.90;;;;;;5077323;28;20169;-88
2022/08/31 16:29:59;;;;;;;9.67;8.70;;;16.20;99.90;;;;;;5078925;28;20192;-87
2022/08/31 16:32:26;;;;;;;11.50;8.90;;;16.20;99.90;;;;;;5078235;28;20256;-88
2022/08/31 16:34:53;;;;;;;8.87;7.97;;;16.20;99.90;;;;;;5079188;28;20181;-88
2022/08/31 16:37:19;;;;;;;9.87;8.70;;;16.10;99.90;;;;;;5077028;28;20179;-87
2022/08/31 16:39:45;;;;;;;11.00;8.43;;;16.10;99.90;;;;;;5075574;28;20696;-85
